OSDI/DAM METAR and TAF weather

Enter ICAO airport designator
Station Type Date Time Source
OSDI METAR 2019/12/14 17:00 UTC NOAA

OSDI 141700Z 00000KT 9999 SCT030 BKN100 10/03 Q1017


Station Type Date Time Source
OSDI Decoded METAR 2019/12/14 17:00 UTC NOAA

Damascus Int. Airport, Syria (OSDI) 33-25N 036-31E 609M
Dec 14, 2019 - 12:00 PM EST / 2019.12.14 1700 UTC
Wind: Calm:0
Visibility: greater than 7 mile(s):0
Sky conditions: mostly cloudy
Temperature: 50 F (10 C)
Dew Point: 37 F (3 C)
Relative Humidity: 61%
Pressure (altimeter): 30.03 in. Hg (1017 hPa)
ob: OSDI 141700Z 00000KT 9999 SCT030 BKN100 10/03 Q1017
cycle: 17

Station Type Date Time Source
OSDI TAF 2019/12/14 18:30 UTC NOAA

TAF TAF OSDI 1418/1524 22010KT 9999 FEW030 SCT100 PROB30
TEMPO 1500/1506 VRB03KT 3000 BR

Example: see airport list